sensor_id;sensor_type;location;lat;lon;timestamp;temperature;humidity
43651;DHT22;29247;50.944;5.382;2023-08-06T00:00:51;17.40;93.70
43651;DHT22;29247;50.944;5.382;2023-08-06T00:03:17;17.40;93.80
43651;DHT22;29247;50.944;5.382;2023-08-06T00:05:45;17.40;93.80
43651;DHT22;29247;50.944;5.382;2023-08-06T00:08:10;17.40;93.80
43651;DHT22;29247;50.944;5.382;2023-08-06T00:10:36;17.40;93.80
43651;DHT22;29247;50.944;5.382;2023-08-06T00:13:02;17.40;93.90
43651;DHT22;29247;50.944;5.382;2023-08-06T00:15:27;17.40;93.90
43651;DHT22;29247;50.944;5.382;2023-08-06T00:17:55;17.40;93.90
43651;DHT22;29247;50.944;5.382;2023-08-06T00:20:21;17.40;93.90
43651;DHT22;29247;50.944;5.382;2023-08-06T00:22:46;17.40;93.90
43651;DHT22;29247;50.944;5.382;2023-08-06T00:25:14;17.40;94.00
43651;DHT22;29247;50.944;5.382;2023-08-06T00:27:40;17.40;94.00
43651;DHT22;29247;50.944;5.382;2023-08-06T00:30:06;17.40;94.00
43651;DHT22;29247;50.944;5.382;2023-08-06T00:32:31;17.40;94.00
43651;DHT22;29247;50.944;5.382;2023-08-06T00:34:59;17.40;93.90
43651;DHT22;29247;50.944;5.382;2023-08-06T00:37:25;17.40;94.00
43651;DHT22;29247;50.944;5.382;2023-08-06T00:39:51;17.40;94.00
43651;DHT22;29247;50.944;5.382;2023-08-06T00:42:16;17.40;94.00
43651;DHT22;29247;50.944;5.382;2023-08-06T00:44:46;17.50;94.00
43651;DHT22;29247;50.944;5.382;2023-08-06T00:47:14;17.50;94.00
43651;DHT22;29247;50.944;5.382;2023-08-06T00:49:40;17.50;94.00
43651;DHT22;29247;50.944;5.382;2023-08-06T00:52:07;17.50;94.00
43651;DHT22;29247;50.944;5.382;2023-08-06T00:54:34;17.40;94.00
43651;DHT22;29247;50.944;5.382;2023-08-06T00:57:01;17.50;94.00
43651;DHT22;29247;50.944;5.382;2023-08-06T00:59:27;17.50;94.10
43651;DHT22;29247;50.944;5.382;2023-08-06T01:01:53;17.40;94.00
43651;DHT22;29247;50.944;5.382;2023-08-06T01:04:21;17.50;94.10
43651;DHT22;29247;50.944;5.382;2023-08-06T01:06:48;17.50;94.40
43651;DHT22;29247;50.944;5.382;2023-08-06T01:09:35;17.50;94.10
43651;DHT22;29247;50.944;5.382;2023-08-06T01:14:32;17.50;94.10
43651;DHT22;29247;50.944;5.382;2023-08-06T01:17:01;17.50;94.10
43651;DHT22;29247;50.944;5.382;2023-08-06T01:19:28;17.50;94.10
43651;DHT22;29247;50.944;5.382;2023-08-06T01:21:54;17.50;94.20
43651;DHT22;29247;50.944;5.382;2023-08-06T01:24:19;17.40;94.20
43651;DHT22;29247;50.944;5.382;2023-08-06T01:26:50;17.40;94.20
43651;DHT22;29247;50.944;5.382;2023-08-06T01:29:39;17.50;94.30
43651;DHT22;29247;50.944;5.382;2023-08-06T01:32:08;17.40;94.30
43651;DHT22;29247;50.944;5.382;2023-08-06T01:34:35;17.40;94.30
43651;DHT22;29247;50.944;5.382;2023-08-06T01:37:01;17.40;94.30
43651;DHT22;29247;50.944;5.382;2023-08-06T01:39:27;17.40;94.40
43651;DHT22;29247;50.944;5.382;2023-08-06T01:41:53;17.40;94.40
43651;DHT22;29247;50.944;5.382;2023-08-06T01:44:21;17.50;94.50
43651;DHT22;29247;50.944;5.382;2023-08-06T01:46:46;17.40;94.50
43651;DHT22;29247;50.944;5.382;2023-08-06T01:49:12;17.40;94.50
43651;DHT22;29247;50.944;5.382;2023-08-06T01:51:40;17.40;94.50
43651;DHT22;29247;50.944;5.382;2023-08-06T01:54:05;17.50;94.50
43651;DHT22;29247;50.944;5.382;2023-08-06T01:56:31;17.40;94.50
43651;DHT22;29247;50.944;5.382;2023-08-06T01:58:57;17.40;94.50
43651;DHT22;29247;50.944;5.382;2023-08-06T02:01:22;17.40;94.60
43651;DHT22;29247;50.944;5.382;2023-08-06T02:03:48;17.40;94.60
43651;DHT22;29247;50.944;5.382;2023-08-06T02:06:14;17.40;94.60
43651;DHT22;29247;50.944;5.382;2023-08-06T02:08:39;17.50;94.70
43651;DHT22;29247;50.944;5.382;2023-08-06T02:11:05;17.50;94.70
43651;DHT22;29247;50.944;5.382;2023-08-06T02:13:33;17.50;94.60
43651;DHT22;29247;50.944;5.382;2023-08-06T02:16:01;17.50;94.70
43651;DHT22;29247;50.944;5.382;2023-08-06T02:18:29;17.50;94.70
43651;DHT22;29247;50.944;5.382;2023-08-06T02:20:57;17.50;94.70
43651;DHT22;29247;50.944;5.382;2023-08-06T02:23:29;17.50;94.70
43651;DHT22;29247;50.944;5.382;2023-08-06T02:26:02;17.40;94.70
43651;DHT22;29247;50.944;5.382;2023-08-06T02:28:29;17.50;94.70
43651;DHT22;29247;50.944;5.382;2023-08-06T02:30:57;17.50;94.70
43651;DHT22;29247;50.944;5.382;2023-08-06T02:33:23;17.50;94.70
43651;DHT22;29247;50.944;5.382;2023-08-06T02:35:49;17.40;94.70
43651;DHT22;29247;50.944;5.382;2023-08-06T02:38:15;17.50;94.70
43651;DHT22;29247;50.944;5.382;2023-08-06T02:40:44;17.50;94.70
43651;DHT22;29247;50.944;5.382;2023-08-06T02:43:13;17.50;94.70
43651;DHT22;29247;50.944;5.382;2023-08-06T02:45:39;17.50;94.70
43651;DHT22;29247;50.944;5.382;2023-08-06T02:48:04;17.50;94.70
43651;DHT22;29247;50.944;5.382;2023-08-06T02:50:30;17.50;94.80
43651;DHT22;29247;50.944;5.382;2023-08-06T02:52:56;17.50;94.80
43651;DHT22;29247;50.944;5.382;2023-08-06T02:55:21;17.50;94.80
43651;DHT22;29247;50.944;5.382;2023-08-06T02:57:47;17.50;94.70
43651;DHT22;29247;50.944;5.382;2023-08-06T03:00:15;17.50;94.80
43651;DHT22;29247;50.944;5.382;2023-08-06T03:02:40;17.50;94.80
43651;DHT22;29247;50.944;5.382;2023-08-06T03:05:08;17.50;94.80
43651;DHT22;29247;50.944;5.382;2023-08-06T03:07:34;17.40;94.80
43651;DHT22;29247;50.944;5.382;2023-08-06T03:10:06;17.50;94.80
43651;DHT22;29247;50.944;5.382;2023-08-06T03:12:32;17.50;94.90
43651;DHT22;29247;50.944;5.382;2023-08-06T03:14:59;17.50;94.90
43651;DHT22;29247;50.944;5.382;2023-08-06T03:17:27;17.50;94.90
43651;DHT22;29247;50.944;5.382;2023-08-06T03:19:53;17.50;94.90
43651;DHT22;29247;50.944;5.382;2023-08-06T03:22:21;17.50;94.90
43651;DHT22;29247;50.944;5.382;2023-08-06T03:24:52;17.50;94.90
43651;DHT22;29247;50.944;5.382;2023-08-06T03:27:20;17.50;94.90
43651;DHT22;29247;50.944;5.382;2023-08-06T03:29:51;17.50;94.90
43651;DHT22;29247;50.944;5.382;2023-08-06T03:32:16;17.50;94.90
43651;DHT22;29247;50.944;5.382;2023-08-06T03:34:47;17.50;94.90
43651;DHT22;29247;50.944;5.382;2023-08-06T03:37:19;17.50;94.90
43651;DHT22;29247;50.944;5.382;2023-08-06T03:39:45;17.50;94.90
43651;DHT22;29247;50.944;5.382;2023-08-06T03:42:12;17.50;94.90
43651;DHT22;29247;50.944;5.382;2023-08-06T03:44:38;17.50;95.00
43651;DHT22;29247;50.944;5.382;2023-08-06T03:47:04;17.50;95.00
43651;DHT22;29247;50.944;5.382;2023-08-06T03:49:33;17.50;95.00
43651;DHT22;29247;50.944;5.382;2023-08-06T03:52:01;17.50;95.00
43651;DHT22;29247;50.944;5.382;2023-08-06T03:54:26;17.50;95.00
43651;DHT22;29247;50.944;5.382;2023-08-06T03:56:52;17.50;95.00
43651;DHT22;29247;50.944;5.382;2023-08-06T03:59:20;17.50;95.00
43651;DHT22;29247;50.944;5.382;2023-08-06T04:01:45;17.50;95.10
43651;DHT22;29247;50.944;5.382;2023-08-06T04:04:11;17.50;95.10
43651;DHT22;29247;50.944;5.382;2023-08-06T04:06:37;17.50;95.10
43651;DHT22;29247;50.944;5.382;2023-08-06T04:09:02;17.50;95.10
43651;DHT22;29247;50.944;5.382;2023-08-06T04:11:28;17.50;95.10
43651;DHT22;29247;50.944;5.382;2023-08-06T04:13:54;17.60;95.10
43651;DHT22;29247;50.944;5.382;2023-08-06T04:16:21;17.50;95.10
43651;DHT22;29247;50.944;5.382;2023-08-06T04:18:48;17.50;95.10
43651;DHT22;29247;50.944;5.382;2023-08-06T04:21:14;17.50;95.20
43651;DHT22;29247;50.944;5.382;2023-08-06T04:23:40;17.50;95.20
43651;DHT22;29247;50.944;5.382;2023-08-06T04:26:07;17.50;95.20
43651;DHT22;29247;50.944;5.382;2023-08-06T04:28:33;17.50;95.20
43651;DHT22;29247;50.944;5.382;2023-08-06T04:31:01;17.60;95.20
43651;DHT22;29247;50.944;5.382;2023-08-06T04:33:27;17.50;95.20
43651;DHT22;29247;50.944;5.382;2023-08-06T04:35:55;17.50;95.20
43651;DHT22;29247;50.944;5.382;2023-08-06T04:38:23;17.50;95.30
43651;DHT22;29247;50.944;5.382;2023-08-06T04:40:54;17.50;95.30
43651;DHT22;29247;50.944;5.382;2023-08-06T04:43:22;17.50;95.30
43651;DHT22;29247;50.944;5.382;2023-08-06T04:45:53;17.60;95.40
43651;DHT22;29247;50.944;5.382;2023-08-06T04:48:19;17.60;95.40
43651;DHT22;29247;50.944;5.382;2023-08-06T04:50:49;17.60;95.40
43651;DHT22;29247;50.944;5.382;2023-08-06T04:53:17;17.60;95.40
43651;DHT22;29247;50.944;5.382;2023-08-06T04:55:43;17.60;95.40
43651;DHT22;29247;50.944;5.382;2023-08-06T04:58:12;17.60;95.40
43651;DHT22;29247;50.944;5.382;2023-08-06T05:00:41;17.60;95.40
43651;DHT22;29247;50.944;5.382;2023-08-06T05:03:09;17.60;95.40
43651;DHT22;29247;50.944;5.382;2023-08-06T05:05:35;17.50;95.40
43651;DHT22;29247;50.944;5.382;2023-08-06T05:08:03;17.50;95.40
43651;DHT22;29247;50.944;5.382;2023-08-06T05:10:31;17.60;95.40
43651;DHT22;29247;50.944;5.382;2023-08-06T05:13:02;17.50;95.40
43651;DHT22;29247;50.944;5.382;2023-08-06T05:15:27;17.60;95.40
43651;DHT22;29247;50.944;5.382;2023-08-06T05:17:53;17.50;95.40
43651;DHT22;29247;50.944;5.382;2023-08-06T05:20:19;17.60;95.50
43651;DHT22;29247;50.944;5.382;2023-08-06T05:22:45;17.60;95.50
43651;DHT22;29247;50.944;5.382;2023-08-06T05:25:15;17.50;95.50
43651;DHT22;29247;50.944;5.382;2023-08-06T05:27:43;17.60;95.60
43651;DHT22;29247;50.944;5.382;2023-08-06T05:30:09;17.50;95.60
43651;DHT22;29247;50.944;5.382;2023-08-06T05:32:38;17.50;95.60
43651;DHT22;29247;50.944;5.382;2023-08-06T05:35:04;17.60;95.70
43651;DHT22;29247;50.944;5.382;2023-08-06T05:37:29;17.60;95.70
43651;DHT22;29247;50.944;5.382;2023-08-06T05:39:57;17.60;95.70
43651;DHT22;29247;50.944;5.382;2023-08-06T05:42:25;17.60;96.10
43651;DHT22;29247;50.944;5.382;2023-08-06T05:44:53;17.50;95.70
43651;DHT22;29247;50.944;5.382;2023-08-06T05:47:23;17.50;95.70
43651;DHT22;29247;50.944;5.382;2023-08-06T05:49:49;17.50;95.70
43651;DHT22;29247;50.944;5.382;2023-08-06T05:52:17;17.50;95.70
43651;DHT22;29247;50.944;5.382;2023-08-06T05:54:42;17.50;95.80
43651;DHT22;29247;50.944;5.382;2023-08-06T05:57:08;17.50;95.70
43651;DHT22;29247;50.944;5.382;2023-08-06T05:59:34;17.50;95.70
43651;DHT22;29247;50.944;5.382;2023-08-06T06:01:59;17.40;95.80
43651;DHT22;29247;50.944;5.382;2023-08-06T06:04:25;17.40;95.80
43651;DHT22;29247;50.944;5.382;2023-08-06T06:06:53;17.40;95.80
43651;DHT22;29247;50.944;5.382;2023-08-06T06:09:21;17.40;95.80
43651;DHT22;29247;50.944;5.382;2023-08-06T06:11:49;17.40;95.80
43651;DHT22;29247;50.944;5.382;2023-08-06T06:14:18;17.40;95.80
43651;DHT22;29247;50.944;5.382;2023-08-06T06:16:44;17.40;95.80
43651;DHT22;29247;50.944;5.382;2023-08-06T06:19:10;17.40;95.80
43651;DHT22;29247;50.944;5.382;2023-08-06T06:21:35;17.30;95.80
43651;DHT22;29247;50.944;5.382;2023-08-06T06:24:04;17.30;95.80
43651;DHT22;29247;50.944;5.382;2023-08-06T06:26:31;17.30;95.70
43651;DHT22;29247;50.944;5.382;2023-08-06T06:28:57;17.20;95.60
43651;DHT22;29247;50.944;5.382;2023-08-06T06:31:23;17.20;95.50
43651;DHT22;29247;50.944;5.382;2023-08-06T06:33:48;17.10;95.30
43651;DHT22;29247;50.944;5.382;2023-08-06T06:36:16;17.00;95.20
43651;DHT22;29247;50.944;5.382;2023-08-06T06:38:42;17.00;95.10
43651;DHT22;29247;50.944;5.382;2023-08-06T06:41:07;16.90;95.20
43651;DHT22;29247;50.944;5.382;2023-08-06T06:43:36;16.90;95.20
43651;DHT22;29247;50.944;5.382;2023-08-06T06:46:03;16.90;95.60
43651;DHT22;29247;50.944;5.382;2023-08-06T06:48:32;16.80;95.30
43651;DHT22;29247;50.944;5.382;2023-08-06T06:51:00;16.80;95.30
43651;DHT22;29247;50.944;5.382;2023-08-06T06:53:26;16.80;95.20
43651;DHT22;29247;50.944;5.382;2023-08-06T06:56:02;16.80;95.00
43651;DHT22;29247;50.944;5.382;2023-08-06T06:58:28;16.70;94.80
43651;DHT22;29247;50.944;5.382;2023-08-06T07:00:53;16.70;94.70
43651;DHT22;29247;50.944;5.382;2023-08-06T07:03:22;16.70;94.70
43651;DHT22;29247;50.944;5.382;2023-08-06T07:05:48;16.60;94.80
43651;DHT22;29247;50.944;5.382;2023-08-06T07:08:14;16.60;94.70
43651;DHT22;29247;50.944;5.382;2023-08-06T07:10:41;16.60;94.70
43651;DHT22;29247;50.944;5.382;2023-08-06T07:13:07;16.60;94.70
43651;DHT22;29247;50.944;5.382;2023-08-06T07:15:33;16.60;94.80
43651;DHT22;29247;50.944;5.382;2023-08-06T07:17:59;16.60;94.90
43651;DHT22;29247;50.944;5.382;2023-08-06T07:20:24;16.60;95.00
43651;DHT22;29247;50.944;5.382;2023-08-06T07:22:50;16.60;95.00
43651;DHT22;29247;50.944;5.382;2023-08-06T07:25:16;16.60;95.10
43651;DHT22;29247;50.944;5.382;2023-08-06T07:27:42;16.60;95.20
43651;DHT22;29247;50.944;5.382;2023-08-06T07:30:08;16.60;95.10
43651;DHT22;29247;50.944;5.382;2023-08-06T07:32:34;16.60;95.20
43651;DHT22;29247;50.944;5.382;2023-08-06T07:35:00;16.60;95.30
43651;DHT22;29247;50.944;5.382;2023-08-06T07:37:29;16.60;95.30
43651;DHT22;29247;50.944;5.382;2023-08-06T07:39:55;16.60;95.30
43651;DHT22;29247;50.944;5.382;2023-08-06T07:42:23;16.60;95.40
43651;DHT22;29247;50.944;5.382;2023-08-06T07:44:58;16.60;95.40
43651;DHT22;29247;50.944;5.382;2023-08-06T07:47:23;16.70;95.40
43651;DHT22;29247;50.944;5.382;2023-08-06T07:49:49;16.70;95.40
43651;DHT22;29247;50.944;5.382;2023-08-06T07:52:15;16.70;95.40
43651;DHT22;29247;50.944;5.382;2023-08-06T07:54:41;16.70;95.30
43651;DHT22;29247;50.944;5.382;2023-08-06T07:57:06;16.70;95.20
43651;DHT22;29247;50.944;5.382;2023-08-06T07:59:32;16.70;95.30
43651;DHT22;29247;50.944;5.382;2023-08-06T08:01:58;16.70;95.30
43651;DHT22;29247;50.944;5.382;2023-08-06T08:04:24;16.70;95.20
43651;DHT22;29247;50.944;5.382;2023-08-06T08:06:52;16.70;95.30
43651;DHT22;29247;50.944;5.382;2023-08-06T08:09:23;16.70;95.20
43651;DHT22;29247;50.944;5.382;2023-08-06T08:11:48;16.70;95.10
43651;DHT22;29247;50.944;5.382;2023-08-06T08:14:15;16.80;95.00
43651;DHT22;29247;50.944;5.382;2023-08-06T08:16:41;16.80;95.10
43651;DHT22;29247;50.944;5.382;2023-08-06T08:19:07;16.80;95.10
43651;DHT22;29247;50.944;5.382;2023-08-06T08:21:32;16.80;95.40
43651;DHT22;29247;50.944;5.382;2023-08-06T08:24:00;16.80;95.10
43651;DHT22;29247;50.944;5.382;2023-08-06T08:26:26;16.90;95.20
43651;DHT22;29247;50.944;5.382;2023-08-06T08:28:53;16.90;95.10
43651;DHT22;29247;50.944;5.382;2023-08-06T08:31:19;16.90;95.10
43651;DHT22;29247;50.944;5.382;2023-08-06T08:33:44;16.90;95.10
43651;DHT22;29247;50.944;5.382;2023-08-06T08:36:12;16.90;95.10
43651;DHT22;29247;50.944;5.382;2023-08-06T08:38:38;16.90;95.10
43651;DHT22;29247;50.944;5.382;2023-08-06T08:41:06;17.00;95.10
43651;DHT22;29247;50.944;5.382;2023-08-06T08:43:32;17.00;95.10
43651;DHT22;29247;50.944;5.382;2023-08-06T08:46:00;17.00;95.00
43651;DHT22;29247;50.944;5.382;2023-08-06T08:48:26;17.00;94.90
43651;DHT22;29247;50.944;5.382;2023-08-06T08:50:55;17.00;94.90
43651;DHT22;29247;50.944;5.382;2023-08-06T08:53:21;17.00;94.80
43651;DHT22;29247;50.944;5.382;2023-08-06T08:55:49;17.00;94.90
43651;DHT22;29247;50.944;5.382;2023-08-06T08:58:15;17.00;94.90
43651;DHT22;29247;50.944;5.382;2023-08-06T09:00:46;17.00;95.00
43651;DHT22;29247;50.944;5.382;2023-08-06T09:03:12;17.00;95.00
43651;DHT22;29247;50.944;5.382;2023-08-06T09:05:47;17.00;95.00
43651;DHT22;29247;50.944;5.382;2023-08-06T09:08:18;17.00;94.90
43651;DHT22;29247;50.944;5.382;2023-08-06T09:10:45;17.00;95.00
43651;DHT22;29247;50.944;5.382;2023-08-06T09:13:13;17.00;95.00
43651;DHT22;29247;50.944;5.382;2023-08-06T09:15:41;17.00;95.00
43651;DHT22;29247;50.944;5.382;2023-08-06T09:18:12;17.00;95.00
43651;DHT22;29247;50.944;5.382;2023-08-06T09:20:41;17.00;94.90
43651;DHT22;29247;50.944;5.382;2023-08-06T09:23:10;17.00;94.90
43651;DHT22;29247;50.944;5.382;2023-08-06T09:25:39;17.00;95.00
43651;DHT22;29247;50.944;5.382;2023-08-06T09:28:08;16.90;95.00
43651;DHT22;29247;50.944;5.382;2023-08-06T09:30:37;17.00;95.10
43651;DHT22;29247;50.944;5.382;2023-08-06T09:33:08;17.00;95.40
43651;DHT22;29247;50.944;5.382;2023-08-06T09:35:37;17.00;95.10
43651;DHT22;29247;50.944;5.382;2023-08-06T09:38:11;17.10;95.10
43651;DHT22;29247;50.944;5.382;2023-08-06T09:40:37;17.10;95.20
43651;DHT22;29247;50.944;5.382;2023-08-06T09:43:07;17.10;95.10
43651;DHT22;29247;50.944;5.382;2023-08-06T09:45:39;17.10;95.10
43651;DHT22;29247;50.944;5.382;2023-08-06T09:48:09;17.10;95.10
43651;DHT22;29247;50.944;5.382;2023-08-06T09:50:37;17.10;95.00
43651;DHT22;29247;50.944;5.382;2023-08-06T09:53:07;17.10;95.00
43651;DHT22;29247;50.944;5.382;2023-08-06T09:55:34;17.10;95.00
43651;DHT22;29247;50.944;5.382;2023-08-06T09:58:04;17.10;95.00
43651;DHT22;29247;50.944;5.382;2023-08-06T10:00:31;17.10;95.00
43651;DHT22;29247;50.944;5.382;2023-08-06T10:03:00;17.10;95.00
43651;DHT22;29247;50.944;5.382;2023-08-06T10:05:26;17.10;95.00
43651;DHT22;29247;50.944;5.382;2023-08-06T10:07:55;17.10;95.00
43651;DHT22;29247;50.944;5.382;2023-08-06T10:10:23;17.10;95.00
43651;DHT22;29247;50.944;5.382;2023-08-06T10:12:51;17.10;95.00
43651;DHT22;29247;50.944;5.382;2023-08-06T10:15:22;17.20;95.20
43651;DHT22;29247;50.944;5.382;2023-08-06T10:17:51;17.20;95.20
43651;DHT22;29247;50.944;5.382;2023-08-06T10:20:18;17.20;95.10
43651;DHT22;29247;50.944;5.382;2023-08-06T10:23:00;17.20;95.00
43651;DHT22;29247;50.944;5.382;2023-08-06T10:25:31;17.10;95.00
43651;DHT22;29247;50.944;5.382;2023-08-06T10:27:57;17.20;95.00
43651;DHT22;29247;50.944;5.382;2023-08-06T10:33:00;17.20;94.90
43651;DHT22;29247;50.944;5.382;2023-08-06T10:35:41;17.20;95.00
43651;DHT22;29247;50.944;5.382;2023-08-06T10:38:12;17.20;95.00
43651;DHT22;29247;50.944;5.382;2023-08-06T10:43:32;17.20;94.80
43651;DHT22;29247;50.944;5.382;2023-08-06T10:46:01;17.20;94.80
43651;DHT22;29247;50.944;5.382;2023-08-06T10:48:45;17.10;94.70
43651;DHT22;29247;50.944;5.382;2023-08-06T10:51:14;17.10;95.10
43651;DHT22;29247;50.944;5.382;2023-08-06T10:53:48;17.10;94.90
43651;DHT22;29247;50.944;5.382;2023-08-06T10:56:16;17.10;95.00
43651;DHT22;29247;50.944;5.382;2023-08-06T10:58:42;17.10;95.00
43651;DHT22;29247;50.944;5.382;2023-08-06T11:01:09;17.10;95.00
43651;DHT22;29247;50.944;5.382;2023-08-06T11:03:37;17.10;94.90
43651;DHT22;29247;50.944;5.382;2023-08-06T11:06:04;17.10;94.90
43651;DHT22;29247;50.944;5.382;2023-08-06T11:08:34;17.10;95.00
43651;DHT22;29247;50.944;5.382;2023-08-06T11:11:14;17.00;95.00
43651;DHT22;29247;50.944;5.382;2023-08-06T11:13:44;17.10;95.10
43651;DHT22;29247;50.944;5.382;2023-08-06T11:16:27;17.00;94.90
43651;DHT22;29247;50.944;5.382;2023-08-06T11:18:53;17.00;95.00
43651;DHT22;29247;50.944;5.382;2023-08-06T11:21:23;17.00;94.90
43651;DHT22;29247;50.944;5.382;2023-08-06T11:23:51;17.00;94.90
43651;DHT22;29247;50.944;5.382;2023-08-06T11:26:20;17.00;95.00
43651;DHT22;29247;50.944;5.382;2023-08-06T11:28:46;17.00;95.10
43651;DHT22;29247;50.944;5.382;2023-08-06T11:31:22;17.00;95.10
43651;DHT22;29247;50.944;5.382;2023-08-06T11:33:51;17.00;95.10
43651;DHT22;29247;50.944;5.382;2023-08-06T11:36:39;17.00;95.10
43651;DHT22;29247;50.944;5.382;2023-08-06T11:39:09;17.00;95.10
43651;DHT22;29247;50.944;5.382;2023-08-06T11:41:38;17.00;95.10
43651;DHT22;29247;50.944;5.382;2023-08-06T11:44:10;16.90;94.90
43651;DHT22;29247;50.944;5.382;2023-08-06T11:46:53;16.90;95.10
43651;DHT22;29247;50.944;5.382;2023-08-06T11:55:05;17.10;95.70
43651;DHT22;29247;50.944;5.382;2023-08-06T11:57:39;17.20;95.90
43651;DHT22;29247;50.944;5.382;2023-08-06T12:00:12;17.30;95.80
43651;DHT22;29247;50.944;5.382;2023-08-06T12:02:42;17.30;95.70
43651;DHT22;29247;50.944;5.382;2023-08-06T12:05:16;17.30;95.40
43651;DHT22;29247;50.944;5.382;2023-08-06T12:07:46;17.40;95.40
43651;DHT22;29247;50.944;5.382;2023-08-06T12:10:13;17.40;95.30
43651;DHT22;29247;50.944;5.382;2023-08-06T12:12:41;17.40;95.00
43651;DHT22;29247;50.944;5.382;2023-08-06T12:15:08;17.40;94.90
43651;DHT22;29247;50.944;5.382;2023-08-06T12:17:34;17.40;94.70
43651;DHT22;29247;50.944;5.382;2023-08-06T12:20:00;17.30;94.60
43651;DHT22;29247;50.944;5.382;2023-08-06T12:22:25;17.30;94.60
43651;DHT22;29247;50.944;5.382;2023-08-06T12:24:51;17.30;94.60
43651;DHT22;29247;50.944;5.382;2023-08-06T12:27:17;17.20;94.70
43651;DHT22;29247;50.944;5.382;2023-08-06T12:29:45;17.20;94.80
43651;DHT22;29247;50.944;5.382;2023-08-06T12:32:13;17.20;94.70
43651;DHT22;29247;50.944;5.382;2023-08-06T12:34:40;17.20;94.70
43651;DHT22;29247;50.944;5.382;2023-08-06T12:37:06;17.20;94.60
43651;DHT22;29247;50.944;5.382;2023-08-06T12:39:37;17.20;94.60
43651;DHT22;29247;50.944;5.382;2023-08-06T12:42:04;17.20;94.70
43651;DHT22;29247;50.944;5.382;2023-08-06T12:44:33;17.20;94.80
43651;DHT22;29247;50.944;5.382;2023-08-06T12:46:59;17.20;95.00
43651;DHT22;29247;50.944;5.382;2023-08-06T12:49:25;17.20;95.10
43651;DHT22;29247;50.944;5.382;2023-08-06T12:51:54;17.30;95.10
43651;DHT22;29247;50.944;5.382;2023-08-06T12:54:25;17.30;94.90
43651;DHT22;29247;50.944;5.382;2023-08-06T12:56:54;17.20;94.70
43651;DHT22;29247;50.944;5.382;2023-08-06T12:59:20;17.20;94.80
43651;DHT22;29247;50.944;5.382;2023-08-06T13:01:46;17.20;94.80
43651;DHT22;29247;50.944;5.382;2023-08-06T13:04:12;17.20;94.80
43651;DHT22;29247;50.944;5.382;2023-08-06T13:06:40;17.20;94.90
43651;DHT22;29247;50.944;5.382;2023-08-06T13:09:09;17.20;94.90
43651;DHT22;29247;50.944;5.382;2023-08-06T13:11:38;17.20;94.90
43651;DHT22;29247;50.944;5.382;2023-08-06T13:14:06;17.20;94.90
43651;DHT22;29247;50.944;5.382;2023-08-06T13:16:39;17.20;94.90
43651;DHT22;29247;50.944;5.382;2023-08-06T13:19:08;17.20;94.80
43651;DHT22;29247;50.944;5.382;2023-08-06T13:21:34;17.20;94.80
43651;DHT22;29247;50.944;5.382;2023-08-06T13:24:06;17.10;94.80
43651;DHT22;29247;50.944;5.382;2023-08-06T13:26:32;17.10;94.80
43651;DHT22;29247;50.944;5.382;2023-08-06T13:28:58;17.10;94.90
43651;DHT22;29247;50.944;5.382;2023-08-06T13:31:25;17.10;94.80
43651;DHT22;29247;50.944;5.382;2023-08-06T13:33:51;17.10;94.80
43651;DHT22;29247;50.944;5.382;2023-08-06T13:36:17;17.10;94.90
43651;DHT22;29247;50.944;5.382;2023-08-06T13:38:43;17.00;95.00
43651;DHT22;29247;50.944;5.382;2023-08-06T13:41:11;17.00;95.00
43651;DHT22;29247;50.944;5.382;2023-08-06T13:43:36;17.10;95.00
43651;DHT22;29247;50.944;5.382;2023-08-06T13:46:02;17.00;95.00
43651;DHT22;29247;50.944;5.382;2023-08-06T13:48:28;17.00;94.90
43651;DHT22;29247;50.944;5.382;2023-08-06T13:50:53;17.00;94.90
43651;DHT22;29247;50.944;5.382;2023-08-06T13:53:19;17.00;94.80
43651;DHT22;29247;50.944;5.382;2023-08-06T13:55:47;17.00;94.80
43651;DHT22;29247;50.944;5.382;2023-08-06T13:58:13;17.00;94.80
43651;DHT22;29247;50.944;5.382;2023-08-06T14:00:40;16.90;94.80
43651;DHT22;29247;50.944;5.382;2023-08-06T14:03:08;16.90;94.80
43651;DHT22;29247;50.944;5.382;2023-08-06T14:05:34;16.90;94.90
43651;DHT22;29247;50.944;5.382;2023-08-06T14:08:02;16.90;94.80
43651;DHT22;29247;50.944;5.382;2023-08-06T14:10:30;16.90;94.80
43651;DHT22;29247;50.944;5.382;2023-08-06T14:12:56;16.80;94.90
43651;DHT22;29247;50.944;5.382;2023-08-06T14:15:22;16.80;95.00
43651;DHT22;29247;50.944;5.382;2023-08-06T14:17:47;16.80;95.00
43651;DHT22;29247;50.944;5.382;2023-08-06T14:20:16;16.80;95.00
43651;DHT22;29247;50.944;5.382;2023-08-06T14:22:44;16.80;95.10
43651;DHT22;29247;50.944;5.382;2023-08-06T14:25:12;16.80;95.10
43651;DHT22;29247;50.944;5.382;2023-08-06T14:27:38;16.80;95.20
43651;DHT22;29247;50.944;5.382;2023-08-06T14:30:06;16.90;95.30
43651;DHT22;29247;50.944;5.382;2023-08-06T14:32:32;16.90;95.20
43651;DHT22;29247;50.944;5.382;2023-08-06T14:34:57;16.90;95.30
43651;DHT22;29247;50.944;5.382;2023-08-06T14:37:24;17.00;95.40
43651;DHT22;29247;50.944;5.382;2023-08-06T14:39:51;17.00;95.30
43651;DHT22;29247;50.944;5.382;2023-08-06T14:42:17;17.00;95.00
43651;DHT22;29247;50.944;5.382;2023-08-06T14:44:43;17.00;95.10
43651;DHT22;29247;50.944;5.382;2023-08-06T14:47:09;17.00;95.10
43651;DHT22;29247;50.944;5.382;2023-08-06T14:49:34;17.00;95.00
43651;DHT22;29247;50.944;5.382;2023-08-06T14:52:00;17.00;94.70
43651;DHT22;29247;50.944;5.382;2023-08-06T14:54:27;17.00;94.80
43651;DHT22;29247;50.944;5.382;2023-08-06T14:56:53;16.90;94.70
43651;DHT22;29247;50.944;5.382;2023-08-06T14:59:18;16.90;95.00
43651;DHT22;29247;50.944;5.382;2023-08-06T15:01:44;16.90;94.60
43651;DHT22;29247;50.944;5.382;2023-08-06T15:04:10;16.90;94.60
43651;DHT22;29247;50.944;5.382;2023-08-06T15:06:35;16.90;94.60
43651;DHT22;29247;50.944;5.382;2023-08-06T15:09:03;16.80;94.50
43651;DHT22;29247;50.944;5.382;2023-08-06T15:11:31;16.80;94.30
43651;DHT22;29247;50.944;5.382;2023-08-06T15:13:57;16.70;94.40
43651;DHT22;29247;50.944;5.382;2023-08-06T15:16:23;16.70;94.50
43651;DHT22;29247;50.944;5.382;2023-08-06T15:18:49;16.70;94.40
43651;DHT22;29247;50.944;5.382;2023-08-06T15:21:14;16.70;94.50
43651;DHT22;29247;50.944;5.382;2023-08-06T15:23:40;16.60;94.50
43651;DHT22;29247;50.944;5.382;2023-08-06T15:26:05;16.60;94.60
43651;DHT22;29247;50.944;5.382;2023-08-06T15:28:33;16.60;94.70
43651;DHT22;29247;50.944;5.382;2023-08-06T15:31:01;16.60;94.80
43651;DHT22;29247;50.944;5.382;2023-08-06T15:33:29;16.60;94.80
43651;DHT22;29247;50.944;5.382;2023-08-06T15:35:55;16.60;94.90
43651;DHT22;29247;50.944;5.382;2023-08-06T15:38:20;16.60;94.90
43651;DHT22;29247;50.944;5.382;2023-08-06T15:40:48;16.70;95.10
43651;DHT22;29247;50.944;5.382;2023-08-06T15:43:14;16.70;95.10
43651;DHT22;29247;50.944;5.382;2023-08-06T15:45:40;16.70;95.10